Friesach, Austria
Current Conditions -  °F | °C
As of 8:20 AM on Saturday 25 Oct 2014 (Local Time) from LOWK Reporting Station
Broken Clouds Broken Clouds  
Wind Chill: 45°   Ceiling: 2500
Heat Index: 45°   Visibility: 6mi
Dew Point: 39°   Wind: 2mph
Humidity: 81%   Direction: NA
Pressure: 30.21"   Gusts: NA
Location:  46.95°N, 14.4°E
Report Text: LOWK 250620Z VRB02KT 9999 BKN025 BKN040 07/04 Q1023 NOSIG
Loading
Personal Weather Stations






























Interactive Weather Map
Tropical Storm Tracking
New forecast layout! Learn more

10-Day Weather Forecast

Advertisements
Track Severe Weather on mobile